Time;durP1;ratioP1;P1;durP2;ratioP2;P2;SDS_P1;SDS_P2;PMS_P1;PMS_P2;Temp;Humidity;BMP_temperature;BMP_pressure;BME280_temperature;BME280_humidity;BME280_pressure;Samples;Min_cycle;Max_cycle;Signal;HPM_P1;HPM_P2
2023/04/18 00:02:15;;;;;;;14.40;10.07;;;6.60;99.90;;;;;;5019536;28;20089;-84
2023/04/18 00:04:42;;;;;;;16.52;10.43;;;6.50;99.90;;;;;;5020171;28;20081;-85
2023/04/18 00:07:07;;;;;;;14.23;10.93;;;6.50;99.90;;;;;;5019166;28;20490;-84
2023/04/18 00:09:33;;;;;;;15.50;10.40;;;6.40;99.90;;;;;;5035810;28;20057;-84
2023/04/18 00:12:00;;;;;;;14.50;10.50;;;6.30;99.90;;;;;;5018736;28;20052;-85
2023/04/18 00:14:27;;;;;;;14.65;10.77;;;6.30;99.90;;;;;;5035718;28;20104;-85
2023/04/18 00:16:53;;;;;;;15.80;10.63;;;6.30;99.90;;;;;;5019140;28;20512;-85
2023/04/18 00:19:19;;;;;;;14.38;10.77;;;6.20;99.90;;;;;;5018769;28;20065;-85
2023/04/18 00:21:45;;;;;;;14.63;10.57;;;6.20;99.90;;;;;;5035366;28;20038;-85
2023/04/18 00:24:11;;;;;;;15.98;11.55;;;6.10;99.90;;;;;;5003067;28;20509;-85
2023/04/18 00:26:37;;;;;;;13.40;10.95;;;6.10;99.90;;;;;;5035453;28;20046;-84
2023/04/18 00:29:03;;;;;;;16.30;11.00;;;6.00;99.90;;;;;;5019006;28;20482;-84
2023/04/18 00:31:30;;;;;;;14.65;10.57;;;6.00;99.90;;;;;;5018922;28;20077;-85
2023/04/18 00:33:56;;;;;;;13.68;10.40;;;6.00;99.90;;;;;;5035391;28;20046;-85
2023/04/18 00:36:21;;;;;;;14.82;10.68;;;6.00;99.90;;;;;;5018274;28;20041;-87
2023/04/18 00:38:47;;;;;;;13.77;10.88;;;6.00;99.90;;;;;;5018855;28;20041;-84
2023/04/18 00:41:14;;;;;;;17.35;10.85;;;6.00;99.90;;;;;;5035226;28;20402;-84
2023/04/18 00:43:39;;;;;;;16.77;10.95;;;6.00;99.90;;;;;;5035090;28;20053;-85
2023/04/18 00:46:05;;;;;;;14.85;10.77;;;6.00;99.90;;;;;;5018025;28;20044;-84
2023/04/18 00:48:31;;;;;;;15.27;11.07;;;6.00;99.90;;;;;;5034542;28;20053;-84
2023/04/18 00:50:59;;;;;;;14.30;10.85;;;6.00;99.90;;;;;;5018551;28;20049;-85
2023/04/18 00:53:25;;;;;;;15.82;11.77;;;6.00;99.90;;;;;;5018480;28;20060;-84
2023/04/18 00:55:51;;;;;;;15.93;11.45;;;6.00;99.90;;;;;;5018517;28;20053;-84
2023/04/18 00:58:17;;;;;;;17.15;11.25;;;6.00;99.90;;;;;;5018202;28;20468;-84
2023/04/18 01:00:43;;;;;;;15.10;11.18;;;6.00;99.90;;;;;;5034943;28;20055;-84
2023/04/18 01:03:09;;;;;;;14.95;11.20;;;5.90;99.90;;;;;;5016956;28;20095;-84
2023/04/18 01:05:35;;;;;;;15.70;11.02;;;5.90;99.90;;;;;;5034747;28;20053;-84
2023/04/18 01:08:01;;;;;;;16.65;11.95;;;5.90;99.90;;;;;;5034723;28;20041;-84
2023/04/18 01:10:29;;;;;;;16.58;11.57;;;5.80;99.90;;;;;;5018267;28;20393;-84
2023/04/18 01:13:14;;;;;;;14.70;11.07;;;5.80;99.90;;;;;;5034246;28;20052;-85
2023/04/18 01:15:45;;;;;;;17.33;11.88;;;5.80;99.90;;;;;;5033977;28;20493;-85
2023/04/18 01:18:12;;;;;;;15.25;11.27;;;5.80;99.90;;;;;;5017880;28;20060;-84
2023/04/18 01:20:41;;;;;;;16.23;12.25;;;5.80;99.90;;;;;;5018043;28;20098;-85
2023/04/18 01:23:09;;;;;;;15.63;11.75;;;5.80;99.90;;;;;;5034276;28;20401;-84
2023/04/18 01:25:35;;;;;;;17.25;11.70;;;5.80;99.90;;;;;;5034303;28;20057;-84
2023/04/18 01:28:01;;;;;;;19.13;12.82;;;5.70;99.90;;;;;;5034371;28;20075;-83
2023/04/18 01:30:27;;;;;;;14.95;11.82;;;5.70;99.90;;;;;;5034102;28;20464;-84
2023/04/18 01:32:53;;;;;;;17.75;12.57;;;5.70;99.90;;;;;;5034238;28;20080;-85
2023/04/18 01:35:19;;;;;;;16.92;12.07;;;5.80;99.90;;;;;;5034192;28;20385;-84
2023/04/18 01:37:44;;;;;;;18.23;12.00;;;5.80;99.90;;;;;;5033624;28;20048;-84
2023/04/18 01:40:10;;;;;;;17.45;12.32;;;5.80;99.90;;;;;;5034071;28;20045;-84
2023/04/18 01:42:36;;;;;;;17.17;12.75;;;5.80;99.90;;;;;;5034013;28;20053;-84
2023/04/18 01:45:03;;;;;;;15.68;11.73;;;5.90;99.90;;;;;;5035011;28;20132;-83
2023/04/18 01:47:29;;;;;;;18.13;11.45;;;5.80;99.90;;;;;;5033667;28;20511;-84
2023/04/18 01:49:55;;;;;;;17.00;12.05;;;5.80;99.90;;;;;;5033625;28;20136;-84
2023/04/18 01:52:20;;;;;;;14.52;11.57;;;5.90;99.90;;;;;;5001069;28;20160;-84
2023/04/18 01:54:46;;;;;;;18.02;11.93;;;5.90;99.90;;;;;;5017355;28;20370;-83
2023/04/18 01:57:12;;;;;;;15.48;11.90;;;5.90;99.90;;;;;;5033807;28;20453;-84
2023/04/18 01:59:37;;;;;;;16.00;11.98;;;6.00;99.90;;;;;;5033765;28;20393;-84
2023/04/18 02:02:03;;;;;;;16.40;11.85;;;6.00;99.90;;;;;;5033573;28;20428;-84
2023/04/18 02:04:29;;;;;;;16.13;11.85;;;6.00;99.90;;;;;;5000322;28;20045;-84
2023/04/18 02:06:55;;;;;;;16.00;11.70;;;6.00;99.90;;;;;;5033310;28;20054;-84
2023/04/18 02:09:20;;;;;;;16.55;11.88;;;6.00;99.90;;;;;;5000961;28;20439;-83
2023/04/18 02:11:46;;;;;;;15.48;11.68;;;6.00;99.90;;;;;;5032967;28;20049;-84
2023/04/18 02:14:12;;;;;;;16.27;11.75;;;6.00;99.90;;;;;;5016503;28;20049;-84
2023/04/18 02:16:38;;;;;;;17.05;12.43;;;6.10;99.90;;;;;;5033135;28;20503;-84
2023/04/18 02:19:05;;;;;;;16.75;12.40;;;6.00;99.90;;;;;;5016724;28;20127;-83
2023/04/18 02:21:30;;;;;;;16.95;12.23;;;6.10;99.90;;;;;;5000487;28;20074;-84
2023/04/18 02:23:56;;;;;;;16.42;12.10;;;6.10;99.90;;;;;;5032667;28;20492;-83
2023/04/18 02:26:22;;;;;;;17.58;12.05;;;6.00;99.90;;;;;;5016831;28;20049;-83
2023/04/18 02:28:48;;;;;;;19.48;12.40;;;6.10;99.90;;;;;;5033151;28;20504;-83
2023/04/18 02:31:15;;;;;;;16.42;12.30;;;6.10;99.90;;;;;;5033276;28;20359;-83
2023/04/18 02:33:42;;;;;;;17.45;12.85;;;6.10;99.90;;;;;;5032555;28;20050;-84
2023/04/18 02:36:08;;;;;;;16.65;12.77;;;6.10;99.90;;;;;;5032685;28;20056;-83
2023/04/18 02:38:34;;;;;;;17.98;12.57;;;6.10;99.90;;;;;;5016629;28;20064;-83
2023/04/18 02:41:00;;;;;;;18.10;13.43;;;6.10;99.90;;;;;;5000254;28;20041;-83
2023/04/18 02:43:25;;;;;;;16.50;12.80;;;6.10;99.90;;;;;;5033105;28;20049;-83
2023/04/18 02:45:51;;;;;;;17.63;13.07;;;6.10;99.90;;;;;;5000159;28;20053;-83
2023/04/18 02:48:17;;;;;;;17.90;13.52;;;6.10;99.90;;;;;;5015871;28;20049;-83
2023/04/18 02:50:43;;;;;;;17.52;13.38;;;6.10;99.90;;;;;;5016144;28;20064;-83
2023/04/18 02:53:08;;;;;;;17.80;13.45;;;6.00;99.90;;;;;;5032630;28;20431;-83
2023/04/18 02:55:34;;;;;;;17.48;13.50;;;6.10;99.90;;;;;;5032389;28;20415;-83
2023/04/18 02:58:00;;;;;;;18.60;13.45;;;6.00;99.90;;;;;;5032720;28;20144;-83
2023/04/18 03:00:26;;;;;;;18.83;13.25;;;6.00;99.90;;;;;;5032456;28;20500;-83
2023/04/18 03:02:52;;;;;;;19.35;13.40;;;6.00;99.90;;;;;;5016313;28;20535;-83
2023/04/18 03:05:18;;;;;;;18.77;14.30;;;6.00;99.90;;;;;;5015939;28;20050;-83
2023/04/18 03:07:44;;;;;;;19.83;13.77;;;6.00;99.90;;;;;;5015951;28;20033;-83
2023/04/18 03:10:09;;;;;;;17.83;12.52;;;6.10;99.90;;;;;;5032279;28;20087;-82
2023/04/18 03:12:35;;;;;;;19.27;13.73;;;6.10;99.90;;;;;;5015898;28;20088;-82
2023/04/18 03:15:01;;;;;;;19.27;13.93;;;6.10;99.90;;;;;;5016084;28;20136;-81
2023/04/18 03:17:27;;;;;;;19.45;13.98;;;5.60;99.90;;;;;;5015887;28;20128;-82
2023/04/18 03:19:53;;;;;;;18.13;14.07;;;6.20;99.90;;;;;;5016060;28;20057;-81
2023/04/18 03:22:19;;;;;;;21.80;14.73;;;6.20;99.90;;;;;;5015856;28;20136;-81
2023/04/18 03:24:45;;;;;;;19.02;13.25;;;6.20;99.90;;;;;;5015984;28;20097;-82
2023/04/18 03:27:12;;;;;;;17.50;13.45;;;6.20;99.90;;;;;;5035164;28;20073;-82
2023/04/18 03:29:38;;;;;;;18.92;13.68;;;6.30;99.90;;;;;;5036569;28;20128;-82
2023/04/18 03:32:04;;;;;;;18.98;13.18;;;6.30;99.90;;;;;;5037638;28;20092;-85
2023/04/18 03:34:29;;;;;;;16.63;12.05;;;6.30;99.90;;;;;;5036217;28;20510;-83
2023/04/18 03:36:55;;;;;;;17.45;12.82;;;6.40;99.90;;;;;;5036040;28;20088;-84
2023/04/18 03:39:21;;;;;;;16.52;12.13;;;6.40;99.90;;;;;;5003661;28;20068;-82
2023/04/18 03:41:48;;;;;;;16.20;11.90;;;6.40;99.90;;;;;;5036078;28;20094;-83
2023/04/18 03:44:13;;;;;;;17.40;12.70;;;6.40;99.90;;;;;;5019688;28;20506;-83
2023/04/18 03:46:40;;;;;;;16.58;11.65;;;6.50;99.90;;;;;;5003086;28;20275;-83
2023/04/18 03:49:05;;;;;;;18.10;12.45;;;6.40;99.90;;;;;;5019940;28;20179;-84
2023/04/18 03:51:46;;;;;;;17.17;13.07;;;6.40;99.90;;;;;;5019475;28;20107;-83
2023/04/18 03:54:13;;;;;;;18.50;12.77;;;6.40;99.90;;;;;;5035806;28;20051;-82
2023/04/18 03:56:39;;;;;;;16.95;12.85;;;6.40;99.90;;;;;;5036011;28;20057;-83
2023/04/18 03:59:05;;;;;;;17.77;12.85;;;6.50;99.90;;;;;;5035684;28;20432;-83
2023/04/18 04:01:31;;;;;;;17.95;13.20;;;6.40;99.90;;;;;;5036042;28;20049;-82
2023/04/18 04:03:57;;;;;;;20.10;13.93;;;6.40;99.90;;;;;;5035938;28;20049;-83
2023/04/18 04:06:23;;;;;;;18.02;12.95;;;6.40;99.90;;;;;;5035698;28;20045;-82
2023/04/18 04:08:49;;;;;;;17.65;13.15;;;6.40;99.90;;;;;;5035818;28;20042;-83
2023/04/18 04:11:16;;;;;;;22.30;15.63;;;6.50;99.90;;;;;;5035220;28;20045;-83
2023/04/18 04:13:42;;;;;;;20.80;14.25;;;6.50;99.90;;;;;;5019383;28;20107;-83
2023/04/18 04:16:07;;;;;;;19.92;14.70;;;6.40;99.90;;;;;;5019237;28;20049;-82
2023/04/18 04:18:33;;;;;;;21.30;14.90;;;6.40;99.90;;;;;;5018958;28;20056;-82
2023/04/18 04:21:00;;;;;;;21.50;15.13;;;6.50;99.90;;;;;;5035299;28;20482;-83
2023/04/18 04:23:26;;;;;;;21.88;16.00;;;6.50;99.90;;;;;;5019006;28;20049;-82
2023/04/18 04:25:52;;;;;;;19.90;14.98;;;6.40;99.90;;;;;;5018698;28;20508;-83
2023/04/18 04:28:22;;;;;;;21.13;15.80;;;6.40;99.90;;;;;;5035169;28;20041;-82
2023/04/18 04:31:09;;;;;;;22.15;14.13;;;6.40;99.90;;;;;;5002646;28;20379;-83
2023/04/18 04:33:37;;;;;;;22.80;15.80;;;6.50;99.90;;;;;;5021785;28;20045;-83
2023/04/18 04:36:05;;;;;;;21.48;15.45;;;6.50;99.90;;;;;;5002490;28;20049;-83
2023/04/18 04:38:31;;;;;;;20.00;13.88;;;6.60;99.90;;;;;;5035334;28;20500;-84
2023/04/18 04:40:57;;;;;;;19.33;14.85;;;6.50;99.90;;;;;;5035295;28;20049;-83
2023/04/18 04:43:24;;;;;;;21.27;15.25;;;6.60;99.90;;;;;;5018959;28;20057;-83
2023/04/18 04:45:51;;;;;;;22.42;16.23;;;6.60;99.90;;;;;;5018615;28;20053;-83
2023/04/18 04:48:18;;;;;;;21.05;15.07;;;6.50;99.90;;;;;;5035139;28;20492;-84
2023/04/18 04:50:51;;;;;;;25.58;17.83;;;6.60;99.90;;;;;;5018512;28;20064;-84
2023/04/18 04:53:17;;;;;;;23.38;16.05;;;6.50;99.90;;;;;;5018460;28;20059;-83
2023/04/18 04:55:43;;;;;;;24.92;18.10;;;6.50;99.90;;;;;;5034976;28;20053;-83
2023/04/18 04:58:09;;;;;;;24.58;18.13;;;6.40;99.90;;;;;;5018490;28;20089;-83
2023/04/18 05:00:38;;;;;;;24.42;18.85;;;6.50;99.90;;;;;;5034651;28;20104;-84
2023/04/18 05:03:04;;;;;;;43.75;28.80;;;6.40;99.90;;;;;;5034944;28;20374;-83
2023/04/18 05:05:33;;;;;;;24.15;17.63;;;6.50;99.90;;;;;;5002043;28;20042;-84
2023/04/18 05:07:59;;;;;;;23.20;17.40;;;6.40;99.90;;;;;;5034434;28;20045;-84
2023/04/18 05:10:25;;;;;;;32.03;22.67;;;6.40;99.90;;;;;;5034640;28;20053;-84
2023/04/18 05:12:50;;;;;;;28.25;20.38;;;6.40;99.90;;;;;;5034626;28;20045;-84
2023/04/18 05:15:17;;;;;;;22.33;15.95;;;6.40;99.90;;;;;;5018162;28;20041;-84
2023/04/18 05:17:43;;;;;;;24.60;16.52;;;6.40;99.90;;;;;;5034394;28;20057;-83
2023/04/18 05:20:09;;;;;;;26.48;18.70;;;6.40;99.90;;;;;;5034609;28;20386;-83
2023/04/18 05:22:35;;;;;;;20.50;14.80;;;6.40;99.90;;;;;;5017845;28;20045;-84
2023/04/18 05:25:01;;;;;;;23.13;15.65;;;6.40;99.90;;;;;;5018110;28;20038;-85
2023/04/18 05:27:27;;;;;;;23.70;16.67;;;6.50;99.90;;;;;;5034212;28;20052;-84
2023/04/18 05:29:53;;;;;;;23.73;16.90;;;6.50;99.90;;;;;;5017876;28;20045;-84
2023/04/18 05:32:20;;;;;;;21.80;17.48;;;6.50;99.90;;;;;;5034214;28;20068;-84
2023/04/18 05:34:46;;;;;;;22.83;16.50;;;6.50;99.90;;;;;;5033978;28;20127;-84
2023/04/18 05:37:12;;;;;;;22.20;16.27;;;6.50;99.90;;;;;;5034223;28;20080;-83
2023/04/18 05:39:38;;;;;;;21.92;15.65;;;6.50;99.90;;;;;;5017684;28;20092;-84
2023/04/18 05:42:03;;;;;;;19.67;15.32;;;6.50;99.90;;;;;;5034169;28;20076;-84
2023/04/18 05:44:29;;;;;;;20.23;15.38;;;6.60;99.90;;;;;;5033876;28;20489;-85
2023/04/18 05:46:55;;;;;;;21.55;16.33;;;6.60;99.90;;;;;;5033736;28;20481;-83
2023/04/18 05:49:23;;;;;;;23.58;15.57;;;6.60;99.90;;;;;;5033463;28;20099;-84
2023/04/18 05:51:49;;;;;;;21.67;15.95;;;6.60;99.90;;;;;;5033751;28;20401;-83
2023/04/18 05:54:15;;;;;;;21.95;16.27;;;6.60;99.90;;;;;;5033868;28;20045;-83
2023/04/18 05:56:41;;;;;;;23.27;16.42;;;6.60;99.90;;;;;;5033696;28;20141;-84
2023/04/18 05:59:07;;;;;;;21.60;14.40;;;6.70;99.90;;;;;;5000730;28;20049;-84
2023/04/18 06:01:33;;;;;;;22.65;17.65;;;6.80;99.90;;;;;;5017153;28;20481;-83
2023/04/18 06:03:59;;;;;;;22.10;15.07;;;6.80;99.90;;;;;;5033694;28;20061;-83
2023/04/18 06:06:26;;;;;;;22.50;17.25;;;6.80;99.90;;;;;;5033075;28;20056;-83
2023/04/18 06:08:53;;;;;;;22.38;16.42;;;6.80;99.90;;;;;;5033370;28;20081;-83
2023/04/18 06:11:20;;;;;;;22.80;16.38;;;6.80;99.90;;;;;;5033284;28;20520;-83
2023/04/18 06:13:45;;;;;;;22.23;16.90;;;6.90;99.90;;;;;;5016960;28;20061;-83
2023/04/18 06:16:12;;;;;;;22.02;16.70;;;7.00;99.90;;;;;;5033493;28;20053;-84
2023/04/18 06:18:38;;;;;;;20.75;15.90;;;7.00;99.90;;;;;;5033082;28;20119;-86
2023/04/18 06:21:04;;;;;;;22.90;16.95;;;7.00;99.90;;;;;;5032990;28;20104;-84
2023/04/18 06:23:32;;;;;;;23.83;16.60;;;7.00;99.90;;;;;;5032833;28;20045;-85
2023/04/18 06:25:58;;;;;;;21.85;15.35;;;7.10;99.90;;;;;;5033141;28;20057;-83
2023/04/18 06:28:25;;;;;;;20.73;14.98;;;7.10;99.90;;;;;;5033198;28;20443;-83
2023/04/18 06:30:50;;;;;;;21.02;15.23;;;7.10;99.90;;;;;;5016970;28;20041;-84
2023/04/18 06:33:16;;;;;;;18.52;13.15;;;7.20;99.90;;;;;;4999859;28;20041;-84
2023/04/18 06:35:42;;;;;;;22.05;15.85;;;7.20;99.90;;;;;;5032784;28;20046;-83
2023/04/18 06:38:10;;;;;;;20.55;15.50;;;7.30;99.90;;;;;;5016770;28;20088;-84
2023/04/18 06:40:35;;;;;;;19.20;14.73;;;7.40;99.90;;;;;;5016684;28;20111;-83
2023/04/18 06:43:01;;;;;;;20.15;14.38;;;7.50;99.90;;;;;;5032930;28;20496;-83
2023/04/18 06:45:29;;;;;;;20.25;14.48;;;7.70;99.90;;;;;;4999774;28;20441;-83
2023/04/18 06:47:58;;;;;;;18.92;13.75;;;7.90;99.90;;;;;;5032657;28;20049;-84
2023/04/18 06:50:24;;;;;;;17.27;12.40;;;8.10;99.90;;;;;;5016414;28;20049;-83
2023/04/18 06:52:50;;;;;;;17.23;13.38;;;8.20;99.90;;;;;;5016152;28;20049;-85
2023/04/18 06:55:16;;;;;;;15.57;10.73;;;8.50;99.90;;;;;;5032827;28;20477;-85
2023/04/18 06:57:42;;;;;;;11.93;7.20;;;8.80;99.90;;;;;;5032733;28;20052;-84
2023/04/18 07:00:11;;;;;;;15.95;11.90;;;8.80;99.90;;;;;;5031873;28;20045;-83
2023/04/18 07:02:40;;;;;;;14.23;10.52;;;8.80;99.90;;;;;;5016155;28;20037;-85
2023/04/18 07:05:07;;;;;;;14.57;10.32;;;9.00;99.90;;;;;;5016446;28;20401;-84
2023/04/18 07:07:33;;;;;;;14.15;10.32;;;9.10;99.90;;;;;;5032038;28;20037;-85
2023/04/18 07:09:59;;;;;;;14.15;11.05;;;9.20;99.90;;;;;;5032480;28;20045;-84
2023/04/18 07:12:26;;;;;;;13.93;10.95;;;9.10;99.90;;;;;;5032413;28;20106;-84
2023/04/18 07:14:55;;;;;;;13.43;9.93;;;9.20;99.90;;;;;;5032335;28;20053;-85
2023/04/18 07:17:21;;;;;;;15.35;9.75;;;9.60;99.90;;;;;;5032318;28;20128;-86
2023/04/18 07:19:47;;;;;;;13.50;9.55;;;10.00;99.90;;;;;;5016105;28;20061;-86
2023/04/18 07:22:13;;;;;;;13.90;10.20;;;10.30;99.90;;;;;;5015665;28;20052;-86
2023/04/18 07:24:39;;;;;;;14.48;10.30;;;10.40;99.90;;;;;;4999574;28;20148;-85
2023/04/18 07:27:05;;;;;;;13.25;9.80;;;10.40;99.90;;;;;;5031923;28;20190;-85
2023/04/18 07:29:31;;;;;;;12.20;7.43;;;10.20;99.90;;;;;;5032592;28;20052;-85
2023/04/18 07:31:58;;;;;;;14.10;9.75;;;10.20;99.90;;;;;;5032491;28;20136;-85
2023/04/18 07:34:26;;;;;;;15.43;10.15;;;10.50;99.90;;;;;;5032322;28;20509;-86
2023/04/18 07:36:51;;;;;;;13.50;10.00;;;10.30;99.90;;;;;;5032312;28;20496;-85
2023/04/18 07:39:17;;;;;;;15.10;9.93;;;10.60;99.90;;;;;;5032467;28;20075;-85
2023/04/18 07:41:43;;;;;;;13.70;10.00;;;10.80;99.90;;;;;;5015935;28;20385;-86
2023/04/18 07:44:09;;;;;;;12.60;8.30;;;10.90;99.90;;;;;;5032310;28;20489;-85
2023/04/18 07:46:35;;;;;;;13.27;10.18;;;11.20;99.90;;;;;;5015737;28;20050;-86
2023/04/18 07:49:01;;;;;;;13.88;10.48;;;11.20;99.90;;;;;;5032317;28;20060;-85
2023/04/18 07:51:30;;;;;;;11.55;7.38;;;11.10;99.90;;;;;;5015770;28;20054;-86
2023/04/18 07:53:59;;;;;;;14.20;9.93;;;11.30;99.90;;;;;;5032193;28;20052;-86
2023/04/18 07:56:26;;;;;;;15.38;10.68;;;11.20;99.90;;;;;;5031697;28;20057;-85
2023/04/18 07:58:52;;;;;;;14.18;10.65;;;11.40;99.90;;;;;;5032043;28;20132;-84
2023/04/18 08:01:19;;;;;;;16.00;11.55;;;11.40;99.90;;;;;;4999554;28;20501;-85
2023/04/18 08:03:47;;;;;;;14.60;10.90;;;11.00;99.90;;;;;;4999612;28;20049;-86
2023/04/18 08:06:12;;;;;;;14.80;10.05;;;10.90;99.90;;;;;;4999596;28;20513;-86
2023/04/18 08:08:38;;;;;;;15.32;10.77;;;10.70;99.90;;;;;;4999011;28;20085;-86
2023/04/18 08:11:07;;;;;;;14.45;10.90;;;10.70;99.90;;;;;;5015685;28;20088;-85
2023/04/18 08:13:33;;;;;;;14.40;10.43;;;10.80;99.90;;;;;;5035312;28;20049;-85
2023/04/18 08:16:02;;;;;;;15.95;11.88;;;10.90;99.90;;;;;;5019251;28;20049;-85
2023/04/18 08:18:28;;;;;;;14.48;11.73;;;10.70;99.90;;;;;;5035549;28;20136;-84
2023/04/18 08:20:54;;;;;;;16.55;12.45;;;10.60;99.90;;;;;;5019318;28;20124;-84
2023/04/18 08:23:20;;;;;;;15.07;11.38;;;10.50;99.90;;;;;;5019048;28;20045;-85
2023/04/18 08:25:46;;;;;;;14.93;11.65;;;10.60;99.90;;;;;;5035261;28;20132;-85
2023/04/18 08:28:12;;;;;;;15.93;10.35;;;10.80;99.90;;;;;;5035254;28;20049;-82
2023/04/18 08:30:38;;;;;;;15.70;11.60;;;10.70;99.90;;;;;;5019139;28;20108;-83
2023/04/18 08:33:04;;;;;;;16.02;12.05;;;10.60;99.90;;;;;;5035421;28;20511;-86
2023/04/18 08:35:32;;;;;;;18.60;13.32;;;10.50;99.90;;;;;;5035378;28;20056;-85
2023/04/18 08:37:59;;;;;;;19.90;12.90;;;10.20;99.90;;;;;;5018851;28;20057;-83
2023/04/18 08:40:29;;;;;;;16.98;12.50;;;10.10;99.90;;;;;;5019216;28;20092;-82
2023/04/18 08:43:03;;;;;;;16.10;10.73;;;10.20;99.90;;;;;;5018912;28;20068;-85
2023/04/18 08:45:30;;;;;;;16.33;12.48;;;10.30;99.90;;;;;;5035303;28;20053;-84
2023/04/18 08:48:00;;;;;;;18.23;13.50;;;10.20;99.90;;;;;;5018525;28;20060;-85
2023/04/18 08:50:26;;;;;;;18.27;12.27;;;10.30;99.90;;;;;;5018806;28;20050;-85
2023/04/18 08:52:53;;;;;;;19.17;13.50;;;10.30;99.90;;;;;;5034928;28;20053;-85
2023/04/18 08:55:23;;;;;;;17.58;12.48;;;10.40;99.90;;;;;;5034493;28;20080;-85
2023/04/18 08:57:52;;;;;;;16.92;12.32;;;10.50;99.90;;;;;;5035016;28;20049;-86
2023/04/18 09:00:18;;;;;;;16.45;11.82;;;10.50;99.90;;;;;;5034913;28;20092;-86
2023/04/18 09:02:45;;;;;;;15.02;11.93;;;10.70;99.90;;;;;;5034912;28;20103;-86
2023/04/18 09:05:18;;;;;;;16.05;12.93;;;10.60;99.90;;;;;;5018529;28;20046;-85
2023/04/18 09:07:45;;;;;;;16.25;11.57;;;10.50;99.90;;;;;;5034488;28;20132;-86
2023/04/18 09:10:12;;;;;;;16.80;12.73;;;10.50;99.90;;;;;;5018362;28;20081;-86
2023/04/18 09:12:51;;;;;;;14.93;10.65;;;10.50;99.90;;;;;;5034445;28;20052;-86
2023/04/18 09:15:22;;;;;;;17.17;12.02;;;10.60;99.90;;;;;;5018184;28;20448;-86
2023/04/18 09:17:52;;;;;;;15.77;12.43;;;10.60;99.90;;;;;;5034435;28;20065;-85
2023/04/18 09:20:46;;;;;;;16.08;12.25;;;10.50;99.90;;;;;;5034339;28;20053;-86
2023/04/18 09:23:22;;;;;;;16.60;12.10;;;10.40;99.90;;;;;;5032742;28;20093;-85
2023/04/18 09:25:49;;;;;;;16.42;12.50;;;10.60;99.90;;;;;;5034508;28;20053;-85
2023/04/18 09:28:28;;;;;;;19.02;11.30;;;10.60;99.90;;;;;;5034201;28;20055;-86
2023/04/18 09:30:56;;;;;;;15.85;11.20;;;10.80;99.90;;;;;;5034424;28;20389;-86
2023/04/18 09:33:31;;;;;;;15.73;10.27;;;10.90;99.90;;;;;;5034358;28;20072;-86
2023/04/18 09:36:19;;;;;;;14.30;10.50;;;11.10;99.90;;;;;;5033697;28;20045;-85
2023/04/18 09:38:46;;;;;;;16.55;10.98;;;11.10;99.90;;;;;;5033929;28;20050;-85
2023/04/18 09:41:14;;;;;;;16.58;11.32;;;11.30;99.90;;;;;;5034201;28;20049;-86
2023/04/18 09:43:40;;;;;;;15.13;10.15;;;11.40;99.90;;;;;;5017415;28;20136;-86
2023/04/18 09:46:07;;;;;;;16.38;12.93;;;11.60;99.90;;;;;;5016927;28;20052;-85
2023/04/18 09:48:34;;;;;;;15.10;11.68;;;11.80;99.90;;;;;;5034008;28;20056;-87
2023/04/18 09:51:06;;;;;;;15.32;11.55;;;12.30;99.90;;;;;;5034070;28;20096;-84
2023/04/18 09:53:39;;;;;;;15.68;11.40;;;12.90;99.90;;;;;;5034715;28;20535;-85
2023/04/18 09:56:08;;;;;;;15.70;10.13;;;13.10;99.90;;;;;;5018835;28;20068;-84
2023/04/18 09:58:40;;;;;;;15.65;12.10;;;13.30;99.60;;;;;;5034004;28;20053;-84
2023/04/18 10:01:06;;;;;;;15.90;12.00;;;13.30;99.70;;;;;;5018658;28;20074;-85
2023/04/18 10:03:40;;;;;;;16.45;10.88;;;13.30;99.90;;;;;;5017142;28;20045;-84
2023/04/18 10:06:06;;;;;;;14.52;11.90;;;13.40;98.40;;;;;;5033624;28;20053;-84
2023/04/18 10:08:33;;;;;;;14.27;11.10;;;12.80;98.30;;;;;;5033878;28;20053;-84
2023/04/18 10:10:59;;;;;;;14.15;10.88;;;13.10;99.80;;;;;;5000817;28;20057;-84
2023/04/18 10:13:30;;;;;;;14.82;11.00;;;13.10;99.90;;;;;;5017143;28;20055;-85
2023/04/18 10:15:56;;;;;;;14.65;11.70;;;12.90;99.50;;;;;;5033526;28;20136;-83
2023/04/18 10:18:23;;;;;;;13.85;10.98;;;12.90;99.90;;;;;;5033244;28;20140;-83
2023/04/18 10:20:49;;;;;;;14.93;10.55;;;13.30;99.90;;;;;;5033549;28;20139;-84
2023/04/18 10:23:30;;;;;;;12.82;9.23;;;13.60;98.50;;;;;;5017496;28;20055;-84
2023/04/18 10:25:57;;;;;;;14.87;9.87;;;13.70;98.20;;;;;;5033314;28;20396;-84
2023/04/18 10:28:25;;;;;;;14.02;10.60;;;13.60;97.80;;;;;;5000603;28;20049;-86
2023/04/18 10:31:11;;;;;;;13.70;9.95;;;13.60;98.90;;;;;;5016696;28;20096;-85
2023/04/18 10:33:46;;;;;;;14.00;10.32;;;13.80;98.00;;;;;;5032497;28;20065;-85
2023/04/18 10:36:19;;;;;;;12.48;9.60;;;13.80;98.40;;;;;;5032984;28;20064;-83
2023/04/18 10:38:52;;;;;;;12.77;9.75;;;13.30;97.20;;;;;;5033373;28;20053;-83
2023/04/18 10:41:46;;;;;;;12.45;9.85;;;13.30;97.90;;;;;;5033002;28;20392;-83
2023/04/18 10:44:17;;;;;;;12.07;8.75;;;13.20;97.70;;;;;;5016882;28;20049;-83
2023/04/18 10:46:52;;;;;;;12.02;9.05;;;13.10;97.70;;;;;;5033010;28;20049;-83
2023/04/18 10:49:22;;;;;;;12.45;9.73;;;13.30;98.70;;;;;;5033248;28;20057;-83
2023/04/18 10:51:53;;;;;;;12.40;9.27;;;13.70;97.00;;;;;;5032454;28;20049;-84
2023/04/18 10:54:41;;;;;;;11.40;9.07;;;14.10;97.80;;;;;;5033578;28;20060;-84
2023/04/18 10:57:08;;;;;;;12.38;8.52;;;14.50;96.00;;;;;;5033053;28;20128;-83
2023/04/18 10:59:38;;;;;;;11.68;7.55;;;14.50;94.20;;;;;;5033786;28;20045;-85
2023/04/18 11:02:28;;;;;;;13.00;9.30;;;14.40;93.10;;;;;;5033498;28;20115;-84
2023/04/18 11:04:57;;;;;;;12.27;8.90;;;14.60;92.90;;;;;;5032490;28;20130;-84
2023/04/18 11:07:35;;;;;;;12.48;7.03;;;14.70;94.60;;;;;;5033464;28;20092;-86
2023/04/18 11:10:02;;;;;;;11.48;7.60;;;14.90;92.60;;;;;;5000280;28;20049;-85
2023/04/18 11:12:33;;;;;;;10.95;7.97;;;14.90;91.00;;;;;;5000955;28;20091;-86
2023/04/18 11:15:00;;;;;;;11.25;8.73;;;14.90;90.20;;;;;;5032774;28;20428;-84
2023/04/18 11:17:31;;;;;;;12.25;8.90;;;14.90;92.60;;;;;;5032424;28;20049;-84
2023/04/18 11:20:13;;;;;;;12.93;7.97;;;15.10;92.30;;;;;;5016420;28;20064;-84
2023/04/18 11:22:49;;;;;;;;;;;15.20;91.40;;;;;;5016722;28;20061;-85
2023/04/18 11:25:17;;;;;;;13.27;8.75;;;15.00;89.30;;;;;;5032760;28;19988;-83
2023/04/18 11:27:45;;;;;;;11.75;8.90;;;15.00;91.10;;;;;;5032921;28;20125;-85
2023/04/18 11:30:12;;;;;;;12.73;9.48;;;15.20;91.80;;;;;;5018347;28;20052;-83
2023/04/18 11:32:38;;;;;;;12.52;9.07;;;15.30;90.70;;;;;;5032278;28;20405;-85
2023/04/18 11:35:08;;;;;;;13.05;9.65;;;15.00;90.50;;;;;;5032614;28;20045;-83
2023/04/18 11:37:35;;;;;;;15.43;9.88;;;14.70;90.00;;;;;;5015715;28;20050;-84
2023/04/18 11:40:07;;;;;;;11.90;9.73;;;14.70;90.50;;;;;;5032117;28;20053;-84
2023/04/18 11:42:33;;;;;;;14.75;10.05;;;14.80;91.60;;;;;;5015933;28;20049;-83
2023/04/18 11:45:00;;;;;;;12.50;9.77;;;14.70;92.50;;;;;;5032551;28;20057;-83
2023/04/18 11:47:27;;;;;;;13.63;10.05;;;15.10;91.10;;;;;;5033796;28;20405;-84
2023/04/18 11:49:58;;;;;;;14.15;10.85;;;15.10;91.30;;;;;;5036282;28;20057;-83
2023/04/18 11:52:26;;;;;;;13.38;10.05;;;14.60;90.70;;;;;;5019609;28;20077;-84
2023/04/18 11:54:55;;;;;;;12.93;10.45;;;14.60;90.10;;;;;;5019717;28;20050;-83
2023/04/18 11:57:28;;;;;;;14.20;10.20;;;14.70;89.30;;;;;;5035910;28;20052;-84
2023/04/18 11:59:56;;;;;;;14.70;9.20;;;14.80;91.70;;;;;;5036479;28;20544;-83
2023/04/18 12:02:38;;;;;;;13.85;10.57;;;15.10;90.70;;;;;;5035759;28;20053;-83
2023/04/18 12:05:04;;;;;;;13.27;10.70;;;15.20;91.20;;;;;;5035991;28;20092;-84
2023/04/18 12:07:31;;;;;;;14.13;10.57;;;15.50;91.60;;;;;;5035730;28;20072;-83
2023/04/18 12:09:57;;;;;;;13.55;10.70;;;15.60;90.10;;;;;;5036810;28;20057;-83
2023/04/18 12:12:22;;;;;;;12.73;9.50;;;15.60;88.00;;;;;;5035354;28;20404;-83
2023/04/18 12:14:56;;;;;;;14.27;10.02;;;15.20;85.90;;;;;;5035558;28;20049;-84
2023/04/18 12:17:25;;;;;;;12.32;10.00;;;15.10;89.90;;;;;;5035505;28;20054;-83
2023/04/18 12:19:52;;;;;;;14.30;10.38;;;15.30;86.80;;;;;;5003052;28;20050;-83
2023/04/18 12:22:18;;;;;;;13.52;11.05;;;15.50;88.90;;;;;;5003233;28;20057;-83
2023/04/18 12:24:45;;;;;;;13.38;10.00;;;15.50;90.30;;;;;;5019332;28;20049;-85
2023/04/18 12:27:11;;;;;;;13.45;10.50;;;15.60;89.70;;;;;;5019132;28;20049;-84
2023/04/18 12:29:36;;;;;;;13.88;9.95;;;15.50;85.60;;;;;;5037221;28;20362;-85
2023/04/18 12:32:02;;;;;;;13.35;9.90;;;15.60;88.70;;;;;;5035205;28;20050;-83
2023/04/18 12:34:28;;;;;;;12.68;9.57;;;15.20;87.30;;;;;;5002739;28;20282;-83
2023/04/18 12:36:54;;;;;;;11.90;9.40;;;15.50;88.90;;;;;;5039569;28;20056;-84
2023/04/18 12:39:19;;;;;;;13.00;9.07;;;15.70;87.70;;;;;;5018975;28;20075;-83